Dixon, IL (61021)

9:38 PM CDT on August 02, 2015 (GMT -0500)
Lee Co EMA Dixon Site | | Change Station
CLOSE
Current Station
Personal Weather Station
Location: Dixon, IL
Elevation: 802 ft
Nearby Weather Stations
Active Advisory: Severe Thunderstorm Watch

Elev 802 ft 41.86 °N, 89.52 °W | Updated 2 minutes ago

Mostly Cloudy
Mostly Cloudy
80.8 °F
Feels Like 87 °F
N
7.0
Wind Variable Wind from WSW
Gusts 7.0 mph

Today
High -- | Low -- °F
--% Chance of Precip.
Yesterday
High -- | Low -- °F
Precip. -- in
5:52 AM 8:15 PM
Waning Gibbous, 90% visible
Pressure 29.67 in
Visibility 10.0 miles
Clouds Scattered Clouds 4200 ft
Scattered Clouds 4800 ft
Heat Index 87 °F
Dew Point 76 °F
Humidity 86%
Rainfall 0.02 in
Snow Depth Not available.
UV 0 out of 12
Pollen 7.50 out of 12
Air Quality Not available.
Flu Activity Not available.
METAR KSQI 030235Z AUTO 25012G16KT 10SM SCT042 SCT048 28/23 A2967 RMK AO1 LTG DSNT N

More Conditions Fewer Conditions

Pressure 29.67 in
Visibility 10.0 miles
Clouds Scattered Clouds 4200 ft
Scattered Clouds 4800 ft
Heat Index 87 °F
Dew Point 76 °F
Humidity 86%
Rainfall 0.02 in
Snow Depth Not available.
UV 0 out of 12
Pollen 7.50 out of 12
Air Quality Not available.
Flu Activity Not available.
METAR KSQI 030235Z AUTO 25012G16KT 10SM SCT042 SCT048 28/23 A2967 RMK AO1 LTG DSNT N

More Conditions Fewer Conditions

10-Day Weather Forecast

×

Almanac

Astronomy

Aug. 02, 2015 Rise Set
Actual Time
Civil Twilight
Nautical Twilight
Astronomical Twilight
Moon
Length of Visible Light
Length of Day
Tomorrow will be .
, % of the Moon is Illuminated

Today's Extremes

State Highs State Lows

Community

WunderPhotos

Upload Photos

1,843,524 photos uploaded!

WunderBlogs® & News

Nearby

Air Quality

  Air Quality AQ Index Pollutant
Not available.

Snow Depth

Station Depth Elevation

Earthquake Activity

City Distance Mag. Time & Date
Minimum magnitude displayed is 2.5.

Coastal Water Temperatures

Place Temperature

Stations

Nearby Weather Stations

Station Location Temp. Windchill Dew Point Humidity Wind Precip. Elev Updated Type
                   
Severe Thunderstorm Watch
Statement as of 9:24 PM CDT on August 02, 2015

Severe Thunderstorm Watch 465 remains in effect until 200 am CDT

IL
. Illinois counties included are

Boone Bureau Carroll
Cook De Kalb dupage
Grundy Henderson Henry
Kane Kankakee Kendall
Knox Lake La Salle
Lee McHenry Marshall
Mercer Ogle Putnam
Rock Island Stark Stephenson
Warren Whiteside will
Winnebago